Time;durP1;ratioP1;P1;durP2;ratioP2;P2;SDS_P1;SDS_P2;PMS_P1;PMS_P2;Temp;Humidity;BMP_temperature;BMP_pressure;BME280_temperature;BME280_humidity;BME280_pressure;Samples;Min_cycle;Max_cycle;Signal;HPM_P1;HPM_P2
2021/12/14 00:01:37;;;;;;;6.57;3.67;;;7.30;99.90;;;;;;4953199;29;20027;-69
2021/12/14 00:04:10;;;;;;;6.18;4.30;;;7.20;99.90;;;;;;4951934;28;20626;-69
2021/12/14 00:06:37;;;;;;;5.57;4.70;;;7.10;99.90;;;;;;4944739;28;20031;-70
2021/12/14 00:09:08;;;;;;;4.43;3.97;;;6.90;99.90;;;;;;4952940;28;20384;-70
2021/12/14 00:14:26;;;;;;;8.82;5.68;;;6.80;99.90;;;;;;4953858;28;20110;-70
2021/12/14 00:16:56;;;;;;;4.65;4.05;;;6.80;99.90;;;;;;4952477;28;20433;-70
2021/12/14 00:19:22;;;;;;;9.85;4.78;;;6.80;99.90;;;;;;4954004;28;20223;-70
2021/12/14 00:21:51;;;;;;;4.75;4.30;;;6.70;99.90;;;;;;4954773;28;20482;-70
2021/12/14 00:24:19;;;;;;;10.93;5.13;;;6.60;99.90;;;;;;4952433;28;20118;-70
2021/12/14 00:26:59;;;;;;;5.43;4.93;;;6.60;99.90;;;;;;4956784;28;20034;-70
2021/12/14 00:29:46;;;;;;;6.15;4.72;;;6.60;99.90;;;;;;4952099;28;20055;-70
2021/12/14 00:32:18;;;;;;;6.43;5.00;;;6.60;99.90;;;;;;4949933;28;20363;-70
2021/12/14 00:34:46;;;;;;;8.23;5.30;;;6.50;99.90;;;;;;4950720;28;20481;-72
2021/12/14 00:37:20;;;;;;;6.70;5.22;;;6.50;99.90;;;;;;4952800;28;20039;-70
2021/12/14 00:39:47;;;;;;;6.15;5.53;;;6.40;99.90;;;;;;4959641;28;20454;-70
2021/12/14 00:42:13;;;;;;;6.03;5.28;;;6.40;99.90;;;;;;4956385;28;20065;-70
2021/12/14 00:44:39;;;;;;;7.15;5.47;;;6.50;99.90;;;;;;4953911;28;20028;-71
2021/12/14 00:47:06;;;;;;;6.88;4.95;;;6.50;99.90;;;;;;4953978;28;20154;-72
2021/12/14 00:49:33;;;;;;;4.75;4.03;;;6.60;99.90;;;;;;4954232;28;20086;-71
2021/12/14 00:51:59;;;;;;;6.35;4.97;;;6.60;99.90;;;;;;4954755;29;20031;-71
2021/12/14 00:54:25;;;;;;;6.25;5.28;;;6.60;99.90;;;;;;4953938;29;20043;-70
2021/12/14 00:56:51;;;;;;;21.08;5.60;;;6.60;99.90;;;;;;4954938;28;20031;-71
2021/12/14 00:59:21;;;;;;;7.30;5.15;;;6.60;99.90;;;;;;4953466;29;20285;-70
2021/12/14 01:01:57;;;;;;;8.25;4.80;;;6.60;99.90;;;;;;4952456;28;20098;-70
2021/12/14 01:04:28;;;;;;;8.18;4.93;;;6.70;99.90;;;;;;4952650;28;20039;-70
2021/12/14 01:06:54;;;;;;;8.07;6.18;;;6.90;99.90;;;;;;4954334;28;20046;-70
2021/12/14 01:09:27;;;;;;;5.55;4.55;;;6.90;99.90;;;;;;4960000;28;20059;-70
2021/12/14 01:11:58;;;;;;;11.30;5.47;;;6.80;99.90;;;;;;4969245;29;20027;-70
2021/12/14 01:14:39;;;;;;;6.50;5.63;;;6.70;99.90;;;;;;4969147;28;20074;-70
2021/12/14 01:17:25;;;;;;;5.95;5.35;;;6.50;99.90;;;;;;4970843;29;20138;-70
2021/12/14 01:19:56;;;;;;;7.07;5.30;;;6.60;99.90;;;;;;4969764;28;20047;-70
2021/12/14 01:22:42;;;;;;;5.88;5.32;;;6.50;99.90;;;;;;4956799;28;20031;-70
2021/12/14 01:25:14;;;;;;;7.72;5.65;;;6.40;99.90;;;;;;4954336;28;20032;-71
2021/12/14 01:27:54;;;;;;;9.68;6.20;;;6.20;99.90;;;;;;4952572;28;20097;-71
2021/12/14 01:30:29;;;;;;;8.68;5.82;;;6.00;99.90;;;;;;4950088;28;20027;-70
2021/12/14 01:33:00;;;;;;;5.65;5.15;;;6.00;99.90;;;;;;4952132;28;20457;-70
2021/12/14 01:35:31;;;;;;;6.13;5.53;;;5.90;99.90;;;;;;4944553;28;20462;-70
2021/12/14 01:38:15;;;;;;;5.53;4.72;;;5.90;99.90;;;;;;4946791;28;20062;-70
2021/12/14 01:40:53;;;;;;;8.43;5.32;;;6.00;99.90;;;;;;4951277;28;20027;-70
2021/12/14 01:43:31;;;;;;;9.98;5.13;;;6.10;99.90;;;;;;4948990;28;20027;-70
2021/12/14 01:46:01;;;;;;;14.43;6.03;;;6.20;99.90;;;;;;4951170;28;20026;-70
2021/12/14 01:48:27;;;;;;;6.47;4.93;;;6.20;99.90;;;;;;4952361;28;20027;-70
2021/12/14 01:50:57;;;;;;;9.18;5.82;;;6.30;99.90;;;;;;4953016;28;20513;-71
2021/12/14 01:53:25;;;;;;;6.70;5.25;;;6.30;99.90;;;;;;4947566;28;20031;-70
2021/12/14 01:55:54;;;;;;;8.85;5.25;;;6.40;99.90;;;;;;4950375;28;20034;-70
2021/12/14 01:58:31;;;;;;;6.85;5.88;;;6.50;99.90;;;;;;4952003;28;20406;-70
2021/12/14 02:01:03;;;;;;;9.70;5.60;;;6.50;99.90;;;;;;4951279;28;20031;-70
2021/12/14 02:03:37;;;;;;;7.10;5.70;;;6.40;99.90;;;;;;4949727;28;20509;-70
2021/12/14 02:06:05;;;;;;;6.72;5.50;;;6.30;99.90;;;;;;4948697;28;20038;-70
2021/12/14 02:08:34;;;;;;;7.78;5.05;;;6.20;99.90;;;;;;4951173;28;20098;-70
2021/12/14 02:11:06;;;;;;;8.85;5.03;;;6.10;99.90;;;;;;4948744;28;20026;-70
2021/12/14 02:13:44;;;;;;;5.78;5.25;;;6.10;99.90;;;;;;4947744;28;20177;-70
2021/12/14 02:16:14;;;;;;;6.40;5.68;;;6.10;99.90;;;;;;4949353;28;20414;-70
2021/12/14 02:18:45;;;;;;;18.33;8.15;;;5.90;99.90;;;;;;4950980;28;20023;-71
2021/12/14 02:21:14;;;;;;;6.10;5.43;;;5.90;99.90;;;;;;4952279;28;20106;-71
2021/12/14 02:23:46;;;;;;;9.60;6.22;;;5.80;99.90;;;;;;4950075;28;20117;-71
2021/12/14 02:26:19;;;;;;;8.57;6.10;;;5.90;99.90;;;;;;4950367;28;20595;-71
2021/12/14 02:28:45;;;;;;;6.50;5.28;;;5.90;99.90;;;;;;4950460;28;20058;-71
2021/12/14 02:31:14;;;;;;;8.60;5.70;;;5.90;99.90;;;;;;4950569;28;20082;-70
2021/12/14 02:33:41;;;;;;;8.35;5.57;;;5.90;99.90;;;;;;4947870;28;20031;-71
2021/12/14 02:36:11;;;;;;;5.60;4.90;;;5.90;99.90;;;;;;4948593;28;20281;-71
2021/12/14 02:38:45;;;;;;;7.32;5.22;;;5.90;99.90;;;;;;4950892;28;20053;-70
2021/12/14 02:41:12;;;;;;;7.10;5.70;;;5.90;99.90;;;;;;4951111;28;20042;-70
2021/12/14 02:43:48;;;;;;;8.38;5.80;;;5.80;99.90;;;;;;4950597;28;21323;-70
2021/12/14 02:46:24;;;;;;;9.45;5.93;;;5.70;99.90;;;;;;4951287;28;20114;-71
2021/12/14 02:48:55;;;;;;;9.73;6.32;;;5.70;99.90;;;;;;4950518;28;20015;-71
2021/12/14 02:51:23;;;;;;;10.25;6.55;;;5.70;99.90;;;;;;4945804;28;20493;-70
2021/12/14 02:53:53;;;;;;;8.75;6.25;;;5.70;99.90;;;;;;4951153;28;20129;-70
2021/12/14 02:56:22;;;;;;;7.38;6.60;;;5.60;99.90;;;;;;4949097;28;20039;-70
2021/12/14 02:58:54;;;;;;;7.97;5.25;;;5.60;99.90;;;;;;4948757;28;20106;-70
2021/12/14 03:01:20;;;;;;;8.25;5.65;;;5.50;99.90;;;;;;4950940;28;20389;-70
2021/12/14 03:03:46;;;;;;;9.77;5.78;;;5.40;99.90;;;;;;4948108;28;20091;-70
2021/12/14 03:06:19;;;;;;;6.20;5.20;;;5.30;99.90;;;;;;4948517;28;20105;-70
2021/12/14 03:08:56;;;;;;;6.38;5.60;;;5.30;99.90;;;;;;4950670;28;21827;-70
2021/12/14 03:11:22;;;;;;;8.77;5.72;;;5.30;99.90;;;;;;4954933;28;20106;-70
2021/12/14 03:13:51;;;;;;;6.43;4.72;;;5.40;99.90;;;;;;4953825;28;20493;-70
2021/12/14 03:16:28;;;;;;;6.85;5.28;;;5.40;99.90;;;;;;4954379;28;20034;-70
2021/12/14 03:18:56;;;;;;;8.02;4.80;;;5.40;99.90;;;;;;4954537;28;20507;-70
2021/12/14 03:21:27;;;;;;;8.13;4.65;;;5.30;99.90;;;;;;4952966;28;20378;-70
2021/12/14 03:24:01;;;;;;;6.78;4.65;;;5.30;99.90;;;;;;4950733;28;20106;-70
2021/12/14 03:26:30;;;;;;;10.00;4.15;;;5.30;99.90;;;;;;4950204;28;20126;-70
2021/12/14 03:28:59;;;;;;;6.10;4.47;;;5.40;99.90;;;;;;4970103;28;20113;-70
2021/12/14 03:31:31;;;;;;;7.93;4.78;;;5.40;99.90;;;;;;4949066;28;20015;-70
2021/12/14 03:34:03;;;;;;;7.13;5.22;;;5.40;99.90;;;;;;4950499;28;20035;-70
2021/12/14 03:36:45;;;;;;;7.80;3.88;;;5.30;99.90;;;;;;4950070;28;20049;-70
2021/12/14 03:39:17;;;;;;;5.10;3.58;;;5.40;99.90;;;;;;4952082;28;20118;-70
2021/12/14 03:41:49;;;;;;;5.95;4.00;;;5.50;99.90;;;;;;4951998;28;20577;-70
2021/12/14 03:44:40;;;;;;;4.35;3.28;;;5.50;99.90;;;;;;4950748;29;20090;-70
2021/12/14 03:47:08;;;;;;;4.00;3.60;;;5.60;99.90;;;;;;4951417;28;20082;-70
2021/12/14 03:49:57;;;;;;;4.82;3.88;;;5.60;99.90;;;;;;4951571;28;20023;-70
2021/12/14 03:52:30;;;;;;;4.63;3.95;;;5.60;99.90;;;;;;4950349;28;20031;-70
2021/12/14 03:54:58;;;;;;;3.78;2.67;;;5.80;99.90;;;;;;4950958;28;20031;-71
2021/12/14 03:57:24;;;;;;;5.85;3.35;;;5.80;99.90;;;;;;4950465;28;20393;-71
2021/12/14 03:59:50;;;;;;;5.32;3.17;;;5.90;99.90;;;;;;4950021;28;20030;-70
2021/12/14 04:02:18;;;;;;;5.07;3.22;;;5.80;99.90;;;;;;4949871;28;20035;-70
2021/12/14 04:04:53;;;;;;;4.47;2.95;;;5.80;99.90;;;;;;4954837;28;20019;-70
2021/12/14 04:07:19;;;;;;;3.38;2.92;;;5.90;99.90;;;;;;4952717;28;20082;-69
2021/12/14 04:09:45;;;;;;;6.45;3.90;;;5.90;99.90;;;;;;4952760;28;20533;-69
2021/12/14 04:12:16;;;;;;;3.42;2.95;;;5.90;99.90;;;;;;4953492;28;20023;-70
2021/12/14 04:14:44;;;;;;;5.20;3.53;;;5.80;99.90;;;;;;4952854;28;20118;-70
2021/12/14 04:17:12;;;;;;;4.35;3.67;;;5.80;99.90;;;;;;4953561;28;20038;-70
2021/12/14 04:19:39;;;;;;;3.88;3.42;;;5.90;99.90;;;;;;4953691;28;20027;-70
2021/12/14 04:22:11;;;;;;;4.05;3.63;;;5.90;99.90;;;;;;4953669;28;20166;-70
2021/12/14 04:24:39;;;;;;;6.05;3.00;;;5.90;99.90;;;;;;4953287;28;20071;-71
2021/12/14 04:27:09;;;;;;;4.18;3.38;;;5.80;99.90;;;;;;4951644;28;20039;-70
2021/12/14 04:29:36;;;;;;;4.95;4.18;;;5.70;99.90;;;;;;4950891;28;20106;-70
2021/12/14 04:32:03;;;;;;;3.08;2.78;;;5.80;99.90;;;;;;4950504;28;20118;-70
2021/12/14 04:34:31;;;;;;;4.53;3.22;;;5.80;99.90;;;;;;4951734;28;20649;-71
2021/12/14 04:36:57;;;;;;;4.38;3.03;;;5.80;99.90;;;;;;4949123;28;20027;-70
2021/12/14 04:53:04;;;;;;;5.80;3.80;;;5.60;99.90;;;;;;4953013;28;20078;-70
2021/12/14 04:55:30;;;;;;;4.15;3.67;;;5.60;99.90;;;;;;4952185;28;20102;-70
2021/12/14 04:57:56;;;;;;;5.32;4.25;;;5.40;99.90;;;;;;4951085;28;20027;-71
2021/12/14 05:00:31;;;;;;;7.43;3.22;;;5.30;99.90;;;;;;4951943;28;20544;-71
2021/12/14 05:02:59;;;;;;;4.45;3.10;;;5.30;99.90;;;;;;4950342;28;20488;-70
2021/12/14 05:05:29;;;;;;;4.10;3.03;;;5.30;99.90;;;;;;4950210;28;20023;-69
2021/12/14 05:10:54;;;;;;;6.90;2.72;;;5.40;99.90;;;;;;4951252;29;20046;-70
2021/12/14 05:13:48;;;;;;;3.58;2.83;;;5.40;99.90;;;;;;4953600;29;20116;-70
2021/12/14 05:16:22;;;;;;;10.35;4.05;;;5.50;99.90;;;;;;4951391;28;20050;-71
2021/12/14 05:18:52;;;;;;;4.78;3.15;;;5.40;99.90;;;;;;4950535;28;20122;-70
2021/12/14 05:21:30;;;;;;;7.13;2.97;;;5.20;99.90;;;;;;4951694;28;20031;-71
2021/12/14 05:23:57;;;;;;;5.55;3.40;;;5.20;99.90;;;;;;4952386;28;20034;-70
2021/12/14 05:26:23;;;;;;;4.18;3.22;;;5.20;99.90;;;;;;4951708;28;20058;-70
2021/12/14 05:28:49;;;;;;;4.70;3.65;;;5.10;99.90;;;;;;4950935;28;20098;-70
2021/12/14 05:31:15;;;;;;;5.25;3.97;;;5.10;99.90;;;;;;4951897;28;20327;-70
2021/12/14 05:33:42;;;;;;;4.78;3.10;;;5.20;99.90;;;;;;4947149;28;20035;-70
2021/12/14 05:36:15;;;;;;;4.50;3.22;;;5.40;99.90;;;;;;4950624;28;20580;-70
2021/12/14 05:44:03;;;;;;;3.92;3.13;;;5.70;99.90;;;;;;4952482;29;20118;-70
2021/12/14 05:46:30;;;;;;;4.72;3.40;;;5.70;99.90;;;;;;4950987;28;20019;-70
2021/12/14 05:49:09;;;;;;;4.13;3.67;;;5.60;99.90;;;;;;4950469;28;20106;-71
2021/12/14 05:51:35;;;;;;;4.22;3.00;;;5.50;99.90;;;;;;4951598;28;20023;-70
2021/12/14 05:54:02;;;;;;;5.30;3.80;;;5.50;99.90;;;;;;4950970;28;20027;-72
2021/12/14 05:56:31;;;;;;;3.53;3.10;;;5.50;99.90;;;;;;4952972;29;20715;-71
2021/12/14 05:58:58;;;;;;;4.07;3.00;;;5.50;99.90;;;;;;4952529;28;20031;-70
2021/12/14 06:01:29;;;;;;;5.32;3.72;;;5.40;99.90;;;;;;4952040;28;20706;-70
2021/12/14 06:04:07;;;;;;;6.90;3.35;;;5.40;99.90;;;;;;4951167;28;20042;-70
2021/12/14 06:06:41;;;;;;;5.68;3.75;;;5.30;99.90;;;;;;4952194;28;20035;-70
2021/12/14 06:09:14;;;;;;;6.38;3.15;;;5.30;99.90;;;;;;4949625;28;20027;-69
2021/12/14 06:11:42;;;;;;;8.85;3.92;;;5.20;99.90;;;;;;4952322;28;20020;-71
2021/12/14 06:14:22;;;;;;;7.88;4.47;;;5.10;99.90;;;;;;4948392;28;21015;-71
2021/12/14 06:16:53;;;;;;;6.93;4.47;;;5.10;99.90;;;;;;4951639;28;20028;-71
2021/12/14 06:19:23;;;;;;;12.73;4.90;;;5.10;99.90;;;;;;4951625;28;20034;-70
2021/12/14 06:21:55;;;;;;;9.15;5.00;;;5.00;99.90;;;;;;4952280;28;20027;-71
2021/12/14 06:24:24;;;;;;;9.23;3.90;;;5.00;99.90;;;;;;4951795;28;20039;-71
2021/12/14 06:26:53;;;;;;;9.10;4.35;;;5.00;99.90;;;;;;4951404;28;20023;-72
2021/12/14 06:29:26;;;;;;;5.38;3.90;;;5.10;99.90;;;;;;4954413;28;20027;-70
2021/12/14 06:31:53;;;;;;;6.07;4.60;;;5.10;99.90;;;;;;4949771;28;20023;-69
2021/12/14 06:34:26;;;;;;;7.57;5.28;;;5.10;99.90;;;;;;4948300;28;20045;-70
2021/12/14 06:37:02;;;;;;;6.03;4.88;;;5.10;99.90;;;;;;4948288;28;20043;-70
2021/12/14 06:39:28;;;;;;;13.00;5.95;;;5.20;99.90;;;;;;4966792;28;20055;-71
2021/12/14 06:42:05;;;;;;;14.55;5.65;;;5.10;99.90;;;;;;4950945;28;20502;-70
2021/12/14 06:44:30;;;;;;;8.38;4.70;;;5.10;99.90;;;;;;4949864;28;20054;-69
2021/12/14 06:46:56;;;;;;;7.60;4.93;;;5.20;99.90;;;;;;4952194;28;20057;-69
2021/12/14 06:49:22;;;;;;;10.45;5.65;;;5.20;99.90;;;;;;4951638;29;20027;-69
2021/12/14 06:51:52;;;;;;;12.30;5.80;;;5.20;99.90;;;;;;4951604;28;20059;-69
2021/12/14 06:54:21;;;;;;;17.15;12.13;;;5.20;99.90;;;;;;4952182;28;20028;-69
2021/12/14 06:56:55;;;;;;;48.05;25.80;;;5.20;99.90;;;;;;4951702;28;20042;-69
2021/12/14 06:59:21;;;;;;;24.58;13.35;;;5.10;99.90;;;;;;4951256;28;20035;-69
2021/12/14 07:01:51;;;;;;;16.77;9.68;;;5.10;99.90;;;;;;4948645;28;20043;-70
2021/12/14 07:04:24;;;;;;;15.88;10.35;;;5.20;99.90;;;;;;4951293;28;20122;-69
2021/12/14 07:06:54;;;;;;;21.15;10.25;;;5.30;99.90;;;;;;4953186;28;20026;-69
2021/12/14 07:09:27;;;;;;;31.25;13.98;;;5.40;99.90;;;;;;4951199;28;20054;-69
2021/12/14 07:12:00;;;;;;;14.45;8.35;;;5.70;99.90;;;;;;4950197;28;20032;-69
2021/12/14 07:14:43;;;;;;;13.48;7.63;;;5.90;99.90;;;;;;4942495;28;20035;-70
2021/12/14 07:17:19;;;;;;;15.18;6.78;;;6.10;99.90;;;;;;4944320;28;20504;-70
2021/12/14 07:19:55;;;;;;;9.63;6.30;;;6.20;99.90;;;;;;4952564;28;20027;-72
2021/12/14 07:22:28;;;;;;;11.27;6.38;;;6.20;99.90;;;;;;4942302;28;20808;-71
2021/12/14 07:25:12;;;;;;;7.30;4.95;;;6.30;99.90;;;;;;4977086;28;20031;-68
2021/12/14 07:27:43;;;;;;;9.27;6.07;;;6.50;99.90;;;;;;4948316;28;20457;-68
2021/12/14 07:30:18;;;;;;;12.98;5.20;;;6.70;99.90;;;;;;4943045;28;20031;-68
2021/12/14 07:32:55;;;;;;;11.35;6.15;;;6.90;99.90;;;;;;4951323;28;20023;-67
2021/12/14 07:35:27;;;;;;;13.52;6.78;;;7.00;99.90;;;;;;4950645;28;20027;-66
2021/12/14 07:37:56;;;;;;;15.05;6.57;;;7.10;99.90;;;;;;4950501;28;20042;-67
2021/12/14 07:40:24;;;;;;;21.90;7.63;;;7.20;99.90;;;;;;4951134;28;20434;-67
2021/12/14 07:43:07;;;;;;;13.77;9.00;;;7.30;99.90;;;;;;4947981;28;20062;-68
2021/12/14 07:45:33;;;;;;;12.60;8.00;;;7.20;99.90;;;;;;4947875;28;20038;-68
2021/12/14 07:47:58;;;;;;;12.00;6.50;;;7.20;99.90;;;;;;4946264;28;20031;-68
2021/12/14 07:50:57;;;;;;;16.48;9.35;;;7.30;99.90;;;;;;4948382;28;20111;-66
2021/12/14 07:53:40;;;;;;;15.23;8.50;;;7.30;99.90;;;;;;4913926;28;20070;-66
2021/12/14 07:56:08;;;;;;;13.57;7.13;;;7.20;99.90;;;;;;4947510;28;20031;-66
2021/12/14 07:58:46;;;;;;;10.32;6.82;;;7.20;99.90;;;;;;4947542;28;20031;-67
2021/12/14 08:01:13;;;;;;;8.13;7.20;;;7.30;99.90;;;;;;4947588;28;20093;-68
2021/12/14 08:03:39;;;;;;;15.10;8.85;;;7.50;99.90;;;;;;4947883;28;20036;-67
2021/12/14 08:06:08;;;;;;;24.58;14.30;;;7.80;99.90;;;;;;4947785;28;20063;-66
2021/12/14 08:08:53;;;;;;;19.88;10.85;;;8.00;99.90;;;;;;4948255;28;20024;-67
2021/12/14 08:11:46;;;;;;;24.95;11.05;;;8.10;99.90;;;;;;4950002;28;20521;-66
2021/12/14 08:14:26;;;;;;;23.60;10.93;;;8.20;99.90;;;;;;4946897;28;20564;-66
2021/12/14 08:17:04;;;;;;;24.50;8.02;;;8.30;99.90;;;;;;4946816;28;20023;-67
2021/12/14 08:19:42;;;;;;;24.20;8.88;;;8.40;99.90;;;;;;4961332;28;20054;-68
2021/12/14 08:22:26;;;;;;;20.58;8.35;;;8.50;99.90;;;;;;4947524;28;20031;-69
2021/12/14 08:24:52;;;;;;;11.73;5.25;;;8.60;99.90;;;;;;4946919;28;20082;-70
2021/12/14 08:27:24;;;;;;;13.98;6.80;;;8.60;99.90;;;;;;4952734;28;20027;-68
2021/12/14 08:29:53;;;;;;;10.45;6.85;;;8.70;99.90;;;;;;4952289;29;20067;-68
2021/12/14 08:32:23;;;;;;;14.68;6.25;;;8.70;99.90;;;;;;4954124;28;20569;-71
2021/12/14 08:34:51;;;;;;;11.35;7.35;;;8.70;99.90;;;;;;4954436;29;20031;-70
2021/12/14 08:37:32;;;;;;;16.73;9.68;;;8.90;99.90;;;;;;4954944;29;20027;-68
2021/12/14 08:40:03;;;;;;;9.88;7.25;;;9.20;99.90;;;;;;4952859;28;20031;-70
2021/12/14 08:42:44;;;;;;;17.73;7.55;;;9.40;99.90;;;;;;4952851;29;20035;-69
2021/12/14 08:45:26;;;;;;;11.18;7.95;;;9.40;99.90;;;;;;4953874;29;20064;-69
2021/12/14 08:47:57;;;;;;;12.40;9.00;;;9.30;99.90;;;;;;4950253;29;20023;-69
2021/12/14 08:50:24;;;;;;;16.43;9.73;;;9.20;99.90;;;;;;4954824;29;20020;-68
2021/12/14 08:52:51;;;;;;;20.58;8.70;;;9.30;99.90;;;;;;4953756;28;20278;-69
2021/12/14 08:55:19;;;;;;;14.25;7.60;;;9.30;99.90;;;;;;4953942;29;20035;-69
2021/12/14 08:57:46;;;;;;;11.60;6.43;;;9.20;99.90;;;;;;4954067;28;20035;-69
2021/12/14 09:00:18;;;;;;;16.42;6.93;;;9.20;99.90;;;;;;4953816;28;20323;-69
2021/12/14 09:02:46;;;;;;;12.35;7.32;;;9.20;99.90;;;;;;4952467;29;20034;-70
2021/12/14 09:05:11;;;;;;;14.95;5.75;;;9.30;99.90;;;;;;4950225;29;20054;-69
2021/12/14 09:07:37;;;;;;;10.43;5.05;;;9.40;99.90;;;;;;4943839;28;20994;-70
2021/12/14 09:10:09;;;;;;;6.45;4.15;;;9.40;99.90;;;;;;4955913;28;20030;-70
2021/12/14 09:12:41;;;;;;;11.20;4.83;;;9.60;99.90;;;;;;4953437;28;20034;-68
2021/12/14 09:15:24;;;;;;;8.50;5.45;;;9.80;99.90;;;;;;4951853;28;20623;-70
2021/12/14 09:17:49;;;;;;;;;;;10.00;99.90;;;;;;4949799;28;20038;-70
2021/12/14 09:20:25;;;;;;;16.13;6.43;;;10.10;99.90;;;;;;4950900;29;19910;-69
2021/12/14 09:22:57;;;;;;;11.25;5.70;;;10.20;99.90;;;;;;4953869;28;20035;-70
2021/12/14 09:25:26;;;;;;;17.65;5.47;;;10.30;99.90;;;;;;4952359;28;20030;-68
2021/12/14 09:27:53;;;;;;;12.32;4.80;;;10.40;99.90;;;;;;4943309;29;20033;-69
2021/12/14 09:30:23;;;;;;;14.43;4.75;;;10.40;99.90;;;;;;4953390;28;20023;-69
2021/12/14 09:32:50;;;;;;;8.52;4.03;;;10.50;99.90;;;;;;4951435;29;20553;-69
2021/12/14 09:35:20;;;;;;;10.23;5.03;;;10.60;99.90;;;;;;4945522;29;20377;-69
2021/12/14 09:37:48;;;;;;;14.52;4.45;;;10.70;99.90;;;;;;4950293;29;20034;-69
2021/12/14 09:40:30;;;;;;;10.07;5.70;;;10.60;99.90;;;;;;4953183;29;20023;-69
2021/12/14 09:42:56;;;;;;;9.27;5.00;;;10.60;99.90;;;;;;4953099;29;20130;-68
2021/12/14 09:45:35;;;;;;;7.03;4.95;;;10.80;99.90;;;;;;4953142;29;20359;-68
2021/12/14 09:48:03;;;;;;;10.07;4.75;;;10.70;99.90;;;;;;4953755;29;20106;-68
2021/12/14 09:50:34;;;;;;;8.73;6.05;;;10.70;99.90;;;;;;4953063;29;20523;-67
2021/12/14 09:53:03;;;;;;;11.07;5.78;;;10.80;99.90;;;;;;4952469;29;20028;-66
2021/12/14 09:55:32;;;;;;;11.77;5.38;;;10.80;99.90;;;;;;4953017;29;20131;-68
2021/12/14 09:58:04;;;;;;;10.05;4.72;;;11.00;99.90;;;;;;4952420;28;20123;-66
2021/12/14 10:00:45;;;;;;;8.55;5.40;;;11.10;99.90;;;;;;4949621;28;20031;-64
2021/12/14 10:03:13;;;;;;;6.22;3.03;;;11.30;99.90;;;;;;4936718;29;20063;-64
2021/12/14 10:05:52;;;;;;;8.27;4.95;;;11.30;99.90;;;;;;4949814;29;20113;-67
2021/12/14 10:08:22;;;;;;;8.52;4.53;;;11.20;99.90;;;;;;4952171;28;20019;-68
2021/12/14 10:11:01;;;;;;;11.52;5.20;;;11.30;99.90;;;;;;4950962;29;20019;-67
2021/12/14 10:13:28;;;;;;;7.00;5.05;;;11.30;99.90;;;;;;4951964;28;20034;-68
2021/12/14 10:15:55;;;;;;;8.50;5.60;;;11.30;99.90;;;;;;4952717;29;20082;-67
2021/12/14 10:18:29;;;;;;;10.43;6.90;;;11.40;99.90;;;;;;4939896;29;20102;-67
2021/12/14 10:21:10;;;;;;;11.77;6.05;;;11.50;99.90;;;;;;4935760;28;20064;-67
2021/12/14 10:23:37;;;;;;;13.98;6.70;;;11.50;99.90;;;;;;4948779;28;20051;-69
2021/12/14 10:26:05;;;;;;;10.23;7.00;;;11.60;99.90;;;;;;4947644;28;20093;-69
2021/12/14 10:28:33;;;;;;;10.90;7.22;;;11.70;99.90;;;;;;4953245;28;20530;-68
2021/12/14 10:31:10;;;;;;;10.10;6.43;;;11.70;99.90;;;;;;4946274;28;20409;-67
2021/12/14 10:33:39;;;;;;;10.45;7.43;;;12.00;99.90;;;;;;4950714;28;20434;-68
2021/12/14 10:36:23;;;;;;;7.53;5.75;;;11.90;99.90;;;;;;4949988;28;20031;-69
2021/12/14 10:39:06;;;;;;;6.47;5.72;;;11.80;99.90;;;;;;4949138;28;20027;-65
2021/12/14 10:44:17;;;;;;;13.50;7.88;;;11.60;99.90;;;;;;4949727;28;20180;-67
2021/12/14 10:46:51;;;;;;;8.35;7.50;;;11.40;99.90;;;;;;4951307;28;20042;-66
2021/12/14 10:49:19;;;;;;;10.88;8.48;;;11.30;99.90;;;;;;4951846;28;20393;-67
2021/12/14 10:51:48;;;;;;;8.93;7.15;;;11.40;99.90;;;;;;4951547;28;20070;-67
2021/12/14 10:54:15;;;;;;;13.48;6.63;;;11.40;99.90;;;;;;4951166;28;20394;-67
2021/12/14 10:56:49;;;;;;;11.63;8.50;;;11.50;99.90;;;;;;4951931;28;20158;-68
2021/12/14 10:59:28;;;;;;;13.70;7.18;;;11.60;99.90;;;;;;4952285;28;20477;-68
2021/12/14 11:01:55;;;;;;;15.68;10.15;;;11.60;99.90;;;;;;4951305;28;20506;-66
2021/12/14 11:04:34;;;;;;;9.73;8.30;;;11.60;99.90;;;;;;4950856;28;20170;-67
2021/12/14 11:07:02;;;;;;;12.90;8.65;;;11.60;99.90;;;;;;4949010;28;20015;-66
2021/12/14 11:09:40;;;;;;;13.48;8.10;;;11.60;99.90;;;;;;4954094;28;20020;-66
2021/12/14 11:12:16;;;;;;;12.35;8.50;;;11.70;99.90;;;;;;4951061;28;20561;-66
2021/12/14 11:14:42;;;;;;;11.85;8.82;;;11.80;99.90;;;;;;4951677;28;20489;-69
2021/12/14 11:20:05;;;;;;;14.20;8.82;;;11.80;99.90;;;;;;4955806;29;20219;-67
2021/12/14 11:22:48;;;;;;;12.35;7.15;;;11.80;99.90;;;;;;4954496;28;20054;-68
2021/12/14 11:25:20;;;;;;;8.07;7.13;;;11.80;99.90;;;;;;4952720;28;20174;-68
2021/12/14 11:28:02;;;;;;;10.55;6.90;;;11.70;99.90;;;;;;4953478;28;20031;-67
2021/12/14 11:30:36;;;;;;;8.43;7.07;;;11.80;99.90;;;;;;4947545;28;20486;-69
2021/12/14 11:33:04;;;;;;;9.65;7.85;;;11.80;99.90;;;;;;4951022;28;20034;-68
2021/12/14 11:35:32;;;;;;;7.45;6.70;;;11.90;99.90;;;;;;4955380;28;20034;-69
2021/12/14 11:38:01;;;;;;;11.35;8.77;;;12.10;99.90;;;;;;4954843;28;20030;-68
2021/12/14 11:40:29;;;;;;;11.43;8.25;;;12.10;99.90;;;;;;4955854;28;20015;-69
2021/12/14 11:43:10;;;;;;;11.45;8.15;;;12.20;99.90;;;;;;4954899;28;20023;-66
2021/12/14 11:45:37;;;;;;;12.10;8.35;;;12.30;99.90;;;;;;4954489;28;20077;-68
2021/12/14 11:48:04;;;;;;;15.85;8.88;;;12.30;99.90;;;;;;4954426;28;20035;-68
2021/12/14 11:50:47;;;;;;;11.52;9.25;;;12.30;99.90;;;;;;4955619;28;20159;-67
2021/12/14 11:53:18;;;;;;;15.43;8.45;;;12.30;99.90;;;;;;4954189;28;20046;-67
2021/12/14 11:56:11;;;;;;;12.73;7.87;;;12.30;99.90;;;;;;4955463;28;20027;-68
2021/12/14 11:58:50;;;;;;;13.25;8.15;;;12.30;99.90;;;;;;4952948;28;20665;-67
2021/12/14 12:01:28;;;;;;;13.50;7.18;;;12.40;99.90;;;;;;4954460;28;20529;-67
2021/12/14 12:04:13;;;;;;;8.07;7.28;;;12.40;99.90;;;;;;4953435;28;20027;-67
2021/12/14 12:12:08;;;;;;;8.02;7.13;;;12.40;99.90;;;;;;4954387;28;20059;-67
2021/12/14 12:14:45;;;;;;;10.98;6.43;;;12.30;99.90;;;;;;4954495;28;20054;-65
2021/12/14 12:17:16;;;;;;;9.60;6.57;;;12.20;99.90;;;;;;4947792;28;20122;-69
2021/12/14 12:20:15;;;;;;;9.02;6.60;;;12.10;99.90;;;;;;4952844;28;20098;-68
2021/12/14 12:22:46;;;;;;;15.35;8.18;;;12.10;99.90;;;;;;4954321;28;20414;-67
2021/12/14 12:25:19;;;;;;;10.95;7.18;;;12.30;99.90;;;;;;4954503;28;20438;-67
2021/12/14 12:27:55;;;;;;;12.05;7.47;;;12.30;99.90;;;;;;4953601;28;20023;-68
2021/12/14 12:30:43;;;;;;;14.20;8.27;;;12.30;99.90;;;;;;4951346;28;20073;-69
2021/12/14 12:33:18;;;;;;;10.55;7.10;;;12.30;99.90;;;;;;4952043;28;20426;-69
2021/12/14 12:36:08;;;;;;;11.98;7.18;;;12.40;99.90;;;;;;4952445;29;20075;-68
2021/12/14 12:39:00;;;;;;;12.18;7.65;;;12.30;99.90;;;;;;4951788;28;20023;-66
2021/12/14 12:41:47;;;;;;;8.40;7.45;;;12.20;99.90;;;;;;4952651;28;20047;-67
2021/12/14 12:44:19;;;;;;;11.45;7.45;;;12.10;99.90;;;;;;4955106;29;20031;-67
2021/12/14 12:47:09;;;;;;;14.43;8.32;;;12.10;99.90;;;;;;4954154;28;20027;-66
2021/12/14 12:49:44;;;;;;;8.10;7.03;;;12.20;99.90;;;;;;4946856;28;20034;-67
2021/12/14 12:52:20;;;;;;;9.02;7.75;;;12.10;99.90;;;;;;4953372;28;20039;-66
2021/12/14 12:54:51;;;;;;;13.65;7.38;;;12.10;99.90;;;;;;4953205;28;20031;-66
2021/12/14 12:57:33;;;;;;;7.32;5.03;;;12.00;99.90;;;;;;4952927;28;20489;-66
2021/12/14 13:00:29;;;;;;;8.57;6.22;;;11.90;99.90;;;;;;4948473;28;20037;-66
2021/12/14 13:03:15;;;;;;;7.22;6.43;;;12.00;99.90;;;;;;4951715;28;20118;-67
2021/12/14 13:05:46;;;;;;;7.00;6.35;;;12.00;99.90;;;;;;4948942;28;20035;-65
2021/12/14 13:08:35;;;;;;;7.05;5.95;;;12.10;99.90;;;;;;4952288;28;20098;-67
2021/12/14 13:11:04;;;;;;;7.13;6.07;;;12.10;99.90;;;;;;4952034;28;20030;-68
2021/12/14 13:13:34;;;;;;;17.33;10.45;;;12.10;99.90;;;;;;4946719;29;20023;-67
2021/12/14 13:16:15;;;;;;;19.85;9.82;;;12.10;99.90;;;;;;4947972;28;20320;-67
2021/12/14 13:18:44;;;;;;;10.10;6.85;;;12.10;99.90;;;;;;4951627;28;20341;-66
2021/12/14 13:21:29;;;;;;;10.80;5.55;;;12.10;99.90;;;;;;4953229;28;20058;-67
2021/12/14 13:24:26;;;;;;;5.38;4.10;;;12.10;99.90;;;;;;4951248;28;20122;-67
2021/12/14 13:27:09;;;;;;;7.38;5.97;;;11.90;99.90;;;;;;4949898;28;20149;-66
2021/12/14 13:29:37;;;;;;;;;;;11.80;99.90;;;;;;4941894;29;20019;-67
2021/12/14 13:32:08;;;;;;;11.50;7.88;;;11.80;99.90;;;;;;4949483;28;19914;-67
2021/12/14 13:34:37;;;;;;;11.67;6.20;;;11.70;99.90;;;;;;4951446;28;20500;-66
2021/12/14 13:37:04;;;;;;;10.32;6.30;;;11.60;99.90;;;;;;4951777;28;20430;-68
2021/12/14 13:39:31;;;;;;;7.53;6.03;;;11.60;99.90;;;;;;4949440;28;20093;-67
2021/12/14 13:42:00;;;;;;;9.57;6.07;;;11.50;99.90;;;;;;4952755;28;20039;-65
2021/12/14 13:44:28;;;;;;;9.90;6.43;;;11.50;99.90;;;;;;4953296;28;20059;-66
2021/12/14 13:46:54;;;;;;;11.27;6.70;;;11.40;99.90;;;;;;4951845;28;20031;-65
2021/12/14 13:49:20;;;;;;;11.60;6.25;;;11.40;99.90;;;;;;4947850;28;20486;-66
2021/12/14 13:51:46;;;;;;;8.75;5.43;;;11.30;99.90;;;;;;4945927;28;20023;-67
2021/12/14 13:54:13;;;;;;;6.30;5.65;;;11.40;99.90;;;;;;4946803;28;20500;-66